sensor_id;sensor_type;location;lat;lon;timestamp;temperature;humidity
82788;DHT22;72529;51.786;4.662;2023-11-22T00:00:14;7.56;80.71
82788;DHT22;72529;51.786;4.662;2023-11-22T00:02:39;7.53;80.61
82788;DHT22;72529;51.786;4.662;2023-11-22T00:05:05;7.57;80.40
82788;DHT22;72529;51.786;4.662;2023-11-22T00:07:32;7.50;80.14
82788;DHT22;72529;51.786;4.662;2023-11-22T00:09:58;7.43;80.11
82788;DHT22;72529;51.786;4.662;2023-11-22T00:12:23;7.37;80.06
82788;DHT22;72529;51.786;4.662;2023-11-22T00:14:50;7.30;80.28
82788;DHT22;72529;51.786;4.662;2023-11-22T00:17:15;7.26;80.46
82788;DHT22;72529;51.786;4.662;2023-11-22T00:19:44;7.27;80.41
82788;DHT22;72529;51.786;4.662;2023-11-22T00:22:13;7.20;80.36
82788;DHT22;72529;51.786;4.662;2023-11-22T00:24:42;7.17;80.49
82788;DHT22;72529;51.786;4.662;2023-11-22T00:27:08;7.23;80.32
82788;DHT22;72529;51.786;4.662;2023-11-22T00:29:33;7.15;80.24
82788;DHT22;72529;51.786;4.662;2023-11-22T00:31:59;7.12;80.33
82788;DHT22;72529;51.786;4.662;2023-11-22T00:34:25;7.05;80.45
82788;DHT22;72529;51.786;4.662;2023-11-22T00:36:52;7.05;80.40
82788;DHT22;72529;51.786;4.662;2023-11-22T00:39:18;7.02;80.45
82788;DHT22;72529;51.786;4.662;2023-11-22T00:41:44;6.96;80.34
82788;DHT22;72529;51.786;4.662;2023-11-22T00:44:10;6.97;80.56
82788;DHT22;72529;51.786;4.662;2023-11-22T00:46:35;7.00;80.35
82788;DHT22;72529;51.786;4.662;2023-11-22T00:49:03;6.85;80.19
82788;DHT22;72529;51.786;4.662;2023-11-22T00:51:30;6.81;80.49
82788;DHT22;72529;51.786;4.662;2023-11-22T00:53:57;6.85;80.15
82788;DHT22;72529;51.786;4.662;2023-11-22T00:56:22;6.81;80.67
82788;DHT22;72529;51.786;4.662;2023-11-22T00:58:48;6.79;80.84
82788;DHT22;72529;51.786;4.662;2023-11-22T01:01:16;6.88;80.57
82788;DHT22;72529;51.786;4.662;2023-11-22T01:03:41;6.82;80.82
82788;DHT22;72529;51.786;4.662;2023-11-22T01:06:07;6.85;80.88
82788;DHT22;72529;51.786;4.662;2023-11-22T01:08:32;6.84;80.83
82788;DHT22;72529;51.786;4.662;2023-11-22T01:10:57;6.76;80.56
82788;DHT22;72529;51.786;4.662;2023-11-22T01:13:23;6.76;80.59
82788;DHT22;72529;51.786;4.662;2023-11-22T01:15:48;6.78;80.53
82788;DHT22;72529;51.786;4.662;2023-11-22T01:18:14;6.81;80.51
82788;DHT22;72529;51.786;4.662;2023-11-22T01:20:39;6.84;80.62
82788;DHT22;72529;51.786;4.662;2023-11-22T01:23:05;6.82;80.62
82788;DHT22;72529;51.786;4.662;2023-11-22T01:25:30;6.82;80.77
82788;DHT22;72529;51.786;4.662;2023-11-22T01:27:56;6.81;80.69
82788;DHT22;72529;51.786;4.662;2023-11-22T01:30:21;6.86;80.59
82788;DHT22;72529;51.786;4.662;2023-11-22T01:32:47;6.78;80.48
82788;DHT22;72529;51.786;4.662;2023-11-22T01:35:14;6.82;80.80
82788;DHT22;72529;51.786;4.662;2023-11-22T01:37:41;6.84;80.74
82788;DHT22;72529;51.786;4.662;2023-11-22T01:40:08;6.82;80.80
82788;DHT22;72529;51.786;4.662;2023-11-22T01:42:33;6.82;80.82
82788;DHT22;72529;51.786;4.662;2023-11-22T01:44:59;6.79;80.19
82788;DHT22;72529;51.786;4.662;2023-11-22T01:47:25;6.72;80.21
82788;DHT22;72529;51.786;4.662;2023-11-22T01:49:52;6.75;80.27
82788;DHT22;72529;51.786;4.662;2023-11-22T01:52:19;6.75;80.28
82788;DHT22;72529;51.786;4.662;2023-11-22T01:54:45;6.71;80.01
82788;DHT22;72529;51.786;4.662;2023-11-22T01:57:11;6.59;80.14
82788;DHT22;72529;51.786;4.662;2023-11-22T01:59:38;6.58;80.71
82788;DHT22;72529;51.786;4.662;2023-11-22T02:02:04;6.61;80.58
82788;DHT22;72529;51.786;4.662;2023-11-22T02:04:29;6.59;80.68
82788;DHT22;72529;51.786;4.662;2023-11-22T02:06:55;6.59;80.44
82788;DHT22;72529;51.786;4.662;2023-11-22T02:09:20;6.59;80.35
82788;DHT22;72529;51.786;4.662;2023-11-22T02:11:46;6.51;80.59
82788;DHT22;72529;51.786;4.662;2023-11-22T02:14:14;6.54;80.54
82788;DHT22;72529;51.786;4.662;2023-11-22T02:16:40;6.45;80.39
82788;DHT22;72529;51.786;4.662;2023-11-22T02:19:07;6.42;80.23
82788;DHT22;72529;51.786;4.662;2023-11-22T02:21:35;6.44;80.13
82788;DHT22;72529;51.786;4.662;2023-11-22T02:24:00;6.37;80.27
82788;DHT22;72529;51.786;4.662;2023-11-22T02:26:26;6.33;80.14
82788;DHT22;72529;51.786;4.662;2023-11-22T02:28:52;6.37;80.45
82788;DHT22;72529;51.786;4.662;2023-11-22T02:31:18;6.42;80.58
82788;DHT22;72529;51.786;4.662;2023-11-22T02:33:43;6.38;80.66
82788;DHT22;72529;51.786;4.662;2023-11-22T02:36:09;6.38;80.70
82788;DHT22;72529;51.786;4.662;2023-11-22T02:38:37;6.40;80.64
82788;DHT22;72529;51.786;4.662;2023-11-22T02:41:03;6.41;80.51
82788;DHT22;72529;51.786;4.662;2023-11-22T02:43:30;6.37;80.05
82788;DHT22;72529;51.786;4.662;2023-11-22T02:45:55;6.35;80.09
82788;DHT22;72529;51.786;4.662;2023-11-22T02:48:21;6.35;80.09
82788;DHT22;72529;51.786;4.662;2023-11-22T02:50:46;6.27;80.06
82788;DHT22;72529;51.786;4.662;2023-11-22T02:53:11;6.20;79.88
82788;DHT22;72529;51.786;4.662;2023-11-22T02:55:37;6.17;80.16
82788;DHT22;72529;51.786;4.662;2023-11-22T02:58:03;6.20;80.36
82788;DHT22;72529;51.786;4.662;2023-11-22T03:00:29;6.16;80.66
82788;DHT22;72529;51.786;4.662;2023-11-22T03:02:55;6.07;80.15
82788;DHT22;72529;51.786;4.662;2023-11-22T03:05:21;6.09;80.40
82788;DHT22;72529;51.786;4.662;2023-11-22T03:07:47;6.13;80.67
82788;DHT22;72529;51.786;4.662;2023-11-22T03:10:13;6.13;80.55
82788;DHT22;72529;51.786;4.662;2023-11-22T03:12:39;6.11;80.67
82788;DHT22;72529;51.786;4.662;2023-11-22T03:15:05;6.07;80.64
82788;DHT22;72529;51.786;4.662;2023-11-22T03:17:31;6.09;80.63
82788;DHT22;72529;51.786;4.662;2023-11-22T03:19:58;6.11;80.64
82788;DHT22;72529;51.786;4.662;2023-11-22T03:22:25;6.06;80.54
82788;DHT22;72529;51.786;4.662;2023-11-22T03:24:50;6.01;80.29
82788;DHT22;72529;51.786;4.662;2023-11-22T03:27:16;6.06;80.63
82788;DHT22;72529;51.786;4.662;2023-11-22T03:29:41;6.09;80.86
82788;DHT22;72529;51.786;4.662;2023-11-22T03:32:07;6.10;80.91
82788;DHT22;72529;51.786;4.662;2023-11-22T03:34:33;6.13;80.98
82788;DHT22;72529;51.786;4.662;2023-11-22T03:36:58;6.18;80.89
82788;DHT22;72529;51.786;4.662;2023-11-22T03:39:23;6.14;81.06
82788;DHT22;72529;51.786;4.662;2023-11-22T03:41:50;6.07;80.40
82788;DHT22;72529;51.786;4.662;2023-11-22T03:44:16;6.06;80.67
82788;DHT22;72529;51.786;4.662;2023-11-22T03:46:42;6.04;80.77
82788;DHT22;72529;51.786;4.662;2023-11-22T03:49:07;5.97;80.78
82788;DHT22;72529;51.786;4.662;2023-11-22T03:51:38;5.99;81.41
82788;DHT22;72529;51.786;4.662;2023-11-22T03:54:04;6.13;81.41
82788;DHT22;72529;51.786;4.662;2023-11-22T03:56:29;6.14;81.47
82788;DHT22;72529;51.786;4.662;2023-11-22T03:58:55;6.14;81.41
82788;DHT22;72529;51.786;4.662;2023-11-22T04:01:20;6.17;81.24
82788;DHT22;72529;51.786;4.662;2023-11-22T04:03:46;6.13;81.11
82788;DHT22;72529;51.786;4.662;2023-11-22T04:06:17;6.17;81.13
82788;DHT22;72529;51.786;4.662;2023-11-22T04:08:43;6.20;81.25
82788;DHT22;72529;51.786;4.662;2023-11-22T04:11:09;6.24;81.40
82788;DHT22;72529;51.786;4.662;2023-11-22T04:13:36;6.23;80.99
82788;DHT22;72529;51.786;4.662;2023-11-22T04:16:01;6.20;81.02
82788;DHT22;72529;51.786;4.662;2023-11-22T04:18:26;6.18;81.37
82788;DHT22;72529;51.786;4.662;2023-11-22T04:20:52;6.25;81.55
82788;DHT22;72529;51.786;4.662;2023-11-22T04:23:18;6.30;81.61
82788;DHT22;72529;51.786;4.662;2023-11-22T04:25:43;6.25;81.33
82788;DHT22;72529;51.786;4.662;2023-11-22T04:28:09;6.25;81.39
82788;DHT22;72529;51.786;4.662;2023-11-22T04:30:35;6.27;81.55
82788;DHT22;72529;51.786;4.662;2023-11-22T04:33:01;6.35;81.52
82788;DHT22;72529;51.786;4.662;2023-11-22T04:35:27;6.40;81.63
82788;DHT22;72529;51.786;4.662;2023-11-22T04:37:53;6.35;81.14
82788;DHT22;72529;51.786;4.662;2023-11-22T04:40:20;6.30;81.36
82788;DHT22;72529;51.786;4.662;2023-11-22T04:42:46;6.31;81.54
82788;DHT22;72529;51.786;4.662;2023-11-22T04:45:12;6.40;81.48
82788;DHT22;72529;51.786;4.662;2023-11-22T04:47:38;6.41;81.69
82788;DHT22;72529;51.786;4.662;2023-11-22T04:50:04;6.45;81.62
82788;DHT22;72529;51.786;4.662;2023-11-22T04:52:29;6.49;81.50
82788;DHT22;72529;51.786;4.662;2023-11-22T04:54:56;6.52;81.45
82788;DHT22;72529;51.786;4.662;2023-11-22T04:57:21;6.55;81.34
82788;DHT22;72529;51.786;4.662;2023-11-22T04:59:47;6.55;81.32
82788;DHT22;72529;51.786;4.662;2023-11-22T05:02:12;6.54;81.41
82788;DHT22;72529;51.786;4.662;2023-11-22T05:04:38;6.54;81.31
82788;DHT22;72529;51.786;4.662;2023-11-22T05:07:03;6.48;81.17
82788;DHT22;72529;51.786;4.662;2023-11-22T05:09:29;6.41;80.95
82788;DHT22;72529;51.786;4.662;2023-11-22T05:11:54;6.42;81.31
82788;DHT22;72529;51.786;4.662;2023-11-22T05:14:19;6.45;81.50
82788;DHT22;72529;51.786;4.662;2023-11-22T05:16:45;6.48;81.53
82788;DHT22;72529;51.786;4.662;2023-11-22T05:19:10;6.49;81.58
82788;DHT22;72529;51.786;4.662;2023-11-22T05:21:36;6.49;81.30
82788;DHT22;72529;51.786;4.662;2023-11-22T05:24:01;6.44;81.40
82788;DHT22;72529;51.786;4.662;2023-11-22T05:26:26;6.48;81.65
82788;DHT22;72529;51.786;4.662;2023-11-22T05:28:52;6.49;81.81
82788;DHT22;72529;51.786;4.662;2023-11-22T05:31:21;6.49;81.85
82788;DHT22;72529;51.786;4.662;2023-11-22T05:33:48;6.52;81.90
82788;DHT22;72529;51.786;4.662;2023-11-22T05:36:13;6.54;81.97
82788;DHT22;72529;51.786;4.662;2023-11-22T05:38:42;6.55;81.96
82788;DHT22;72529;51.786;4.662;2023-11-22T05:41:08;6.62;81.89
82788;DHT22;72529;51.786;4.662;2023-11-22T05:43:33;6.68;81.82
82788;DHT22;72529;51.786;4.662;2023-11-22T05:46:02;6.72;81.68
82788;DHT22;72529;51.786;4.662;2023-11-22T05:48:28;6.69;81.56
82788;DHT22;72529;51.786;4.662;2023-11-22T05:50:54;6.65;81.39
82788;DHT22;72529;51.786;4.662;2023-11-22T05:53:20;6.65;81.41
82788;DHT22;72529;51.786;4.662;2023-11-22T05:55:47;6.68;81.59
82788;DHT22;72529;51.786;4.662;2023-11-22T05:58:13;6.68;81.68
82788;DHT22;72529;51.786;4.662;2023-11-22T06:00:45;6.71;81.61
82788;DHT22;72529;51.786;4.662;2023-11-22T06:03:12;6.67;81.73
82788;DHT22;72529;51.786;4.662;2023-11-22T06:05:38;6.74;81.67
82788;DHT22;72529;51.786;4.662;2023-11-22T06:08:04;6.72;81.55
82788;DHT22;72529;51.786;4.662;2023-11-22T06:10:30;6.69;81.72
82788;DHT22;72529;51.786;4.662;2023-11-22T06:12:55;6.68;81.69
82788;DHT22;72529;51.786;4.662;2023-11-22T06:15:21;6.71;81.82
82788;DHT22;72529;51.786;4.662;2023-11-22T06:17:48;6.76;81.86
82788;DHT22;72529;51.786;4.662;2023-11-22T06:20:14;6.76;81.71
82788;DHT22;72529;51.786;4.662;2023-11-22T06:22:40;6.76;81.62
82788;DHT22;72529;51.786;4.662;2023-11-22T06:25:10;6.71;81.43
82788;DHT22;72529;51.786;4.662;2023-11-22T06:27:36;6.65;81.83
82788;DHT22;72529;51.786;4.662;2023-11-22T06:30:02;6.69;82.20
82788;DHT22;72529;51.786;4.662;2023-11-22T06:32:28;6.74;82.42
82788;DHT22;72529;51.786;4.662;2023-11-22T06:34:54;6.74;82.08
82788;DHT22;72529;51.786;4.662;2023-11-22T06:37:19;6.81;82.05
82788;DHT22;72529;51.786;4.662;2023-11-22T06:39:46;6.82;81.92
82788;DHT22;72529;51.786;4.662;2023-11-22T06:42:12;6.79;81.66
82788;DHT22;72529;51.786;4.662;2023-11-22T06:44:38;6.84;81.65
82788;DHT22;72529;51.786;4.662;2023-11-22T06:47:05;6.79;81.64
82788;DHT22;72529;51.786;4.662;2023-11-22T06:49:33;6.74;81.32
82788;DHT22;72529;51.786;4.662;2023-11-22T06:51:59;6.72;81.63
82788;DHT22;72529;51.786;4.662;2023-11-22T06:54:24;6.76;81.71
82788;DHT22;72529;51.786;4.662;2023-11-22T06:56:50;6.72;81.77
82788;DHT22;72529;51.786;4.662;2023-11-22T06:59:17;6.71;81.80
82788;DHT22;72529;51.786;4.662;2023-11-22T07:01:42;6.71;81.77
82788;DHT22;72529;51.786;4.662;2023-11-22T07:04:08;6.72;81.67
82788;DHT22;72529;51.786;4.662;2023-11-22T07:06:33;6.69;81.77
82788;DHT22;72529;51.786;4.662;2023-11-22T07:08:59;6.71;81.90
82788;DHT22;72529;51.786;4.662;2023-11-22T07:11:25;6.71;82.02
82788;DHT22;72529;51.786;4.662;2023-11-22T07:13:51;6.67;82.01
82788;DHT22;72529;51.786;4.662;2023-11-22T07:16:18;6.72;82.12
82788;DHT22;72529;51.786;4.662;2023-11-22T07:18:44;6.71;82.23
82788;DHT22;72529;51.786;4.662;2023-11-22T07:21:11;6.76;82.31
82788;DHT22;72529;51.786;4.662;2023-11-22T07:23:37;6.79;82.36
82788;DHT22;72529;51.786;4.662;2023-11-22T07:26:03;6.82;82.49
82788;DHT22;72529;51.786;4.662;2023-11-22T07:28:29;6.84;82.28
82788;DHT22;72529;51.786;4.662;2023-11-22T07:30:54;6.84;82.09
82788;DHT22;72529;51.786;4.662;2023-11-22T07:33:19;6.82;81.89
82788;DHT22;72529;51.786;4.662;2023-11-22T07:35:46;6.79;81.89
82788;DHT22;72529;51.786;4.662;2023-11-22T07:38:11;6.81;81.84
82788;DHT22;72529;51.786;4.662;2023-11-22T07:40:37;6.86;81.71
82788;DHT22;72529;51.786;4.662;2023-11-22T07:43:03;6.88;81.61
82788;DHT22;72529;51.786;4.662;2023-11-22T07:45:31;6.86;81.43
82788;DHT22;72529;51.786;4.662;2023-11-22T07:47:57;6.91;81.28
82788;DHT22;72529;51.786;4.662;2023-11-22T07:50:25;6.86;81.35
82788;DHT22;72529;51.786;4.662;2023-11-22T07:52:51;6.89;81.32
82788;DHT22;72529;51.786;4.662;2023-11-22T07:55:16;6.93;81.26
82788;DHT22;72529;51.786;4.662;2023-11-22T07:57:44;6.88;81.17
82788;DHT22;72529;51.786;4.662;2023-11-22T08:00:11;6.75;81.27
82788;DHT22;72529;51.786;4.662;2023-11-22T08:02:36;6.69;81.64
82788;DHT22;72529;51.786;4.662;2023-11-22T08:05:04;6.69;81.88
82788;DHT22;72529;51.786;4.662;2023-11-22T08:07:37;6.72;82.07
82788;DHT22;72529;51.786;4.662;2023-11-22T08:10:08;6.71;81.89
82788;DHT22;72529;51.786;4.662;2023-11-22T08:12:47;6.72;81.96
82788;DHT22;72529;51.786;4.662;2023-11-22T08:15:15;6.71;81.99
82788;DHT22;72529;51.786;4.662;2023-11-22T08:17:41;6.79;81.94
82788;DHT22;72529;51.786;4.662;2023-11-22T08:20:08;6.78;81.85
82788;DHT22;72529;51.786;4.662;2023-11-22T08:22:39;6.75;81.93
82788;DHT22;72529;51.786;4.662;2023-11-22T08:25:07;6.81;81.90
82788;DHT22;72529;51.786;4.662;2023-11-22T08:27:33;6.86;81.77
82788;DHT22;72529;51.786;4.662;2023-11-22T08:29:59;6.92;81.73
82788;DHT22;72529;51.786;4.662;2023-11-22T08:32:26;6.96;81.77
82788;DHT22;72529;51.786;4.662;2023-11-22T08:34:56;6.99;81.75
82788;DHT22;72529;51.786;4.662;2023-11-22T08:37:21;6.96;81.91
82788;DHT22;72529;51.786;4.662;2023-11-22T08:39:47;7.07;81.91
82788;DHT22;72529;51.786;4.662;2023-11-22T08:42:12;7.10;81.70
82788;DHT22;72529;51.786;4.662;2023-11-22T08:44:39;7.13;81.64
82788;DHT22;72529;51.786;4.662;2023-11-22T08:47:04;7.24;81.29
82788;DHT22;72529;51.786;4.662;2023-11-22T08:49:30;7.26;81.22
82788;DHT22;72529;51.786;4.662;2023-11-22T08:51:56;7.24;80.99
82788;DHT22;72529;51.786;4.662;2023-11-22T08:54:22;7.26;81.57
82788;DHT22;72529;51.786;4.662;2023-11-22T08:56:47;7.37;81.70
82788;DHT22;72529;51.786;4.662;2023-11-22T08:59:13;7.47;81.54
82788;DHT22;72529;51.786;4.662;2023-11-22T09:01:39;7.53;80.96
82788;DHT22;72529;51.786;4.662;2023-11-22T09:04:05;7.59;80.33
82788;DHT22;72529;51.786;4.662;2023-11-22T09:06:33;7.56;80.14
82788;DHT22;72529;51.786;4.662;2023-11-22T09:09:00;7.51;80.22
82788;DHT22;72529;51.786;4.662;2023-11-22T09:11:26;7.61;79.97
82788;DHT22;72529;51.786;4.662;2023-11-22T09:13:51;7.63;80.15
82788;DHT22;72529;51.786;4.662;2023-11-22T09:16:19;7.70;80.13
82788;DHT22;72529;51.786;4.662;2023-11-22T09:18:47;7.71;80.09
82788;DHT22;72529;51.786;4.662;2023-11-22T09:21:13;7.78;79.96
82788;DHT22;72529;51.786;4.662;2023-11-22T09:23:39;7.77;80.00
82788;DHT22;72529;51.786;4.662;2023-11-22T09:26:04;7.80;80.40
82788;DHT22;72529;51.786;4.662;2023-11-22T09:28:30;7.88;80.13
82788;DHT22;72529;51.786;4.662;2023-11-22T09:30:57;7.88;79.93
82788;DHT22;72529;51.786;4.662;2023-11-22T09:33:31;7.95;79.97
82788;DHT22;72529;51.786;4.662;2023-11-22T09:35:57;7.99;79.80
82788;DHT22;72529;51.786;4.662;2023-11-22T09:38:25;8.05;79.84
82788;DHT22;72529;51.786;4.662;2023-11-22T09:40:51;8.02;79.69
82788;DHT22;72529;51.786;4.662;2023-11-22T09:43:18;8.05;80.21
82788;DHT22;72529;51.786;4.662;2023-11-22T09:45:49;8.18;80.15
82788;DHT22;72529;51.786;4.662;2023-11-22T09:48:19;8.16;80.22
82788;DHT22;72529;51.786;4.662;2023-11-22T09:54:03;8.32;79.72
82788;DHT22;72529;51.786;4.662;2023-11-22T09:56:33;8.32;79.58
82788;DHT22;72529;51.786;4.662;2023-11-22T09:59:00;8.32;80.20
82788;DHT22;72529;51.786;4.662;2023-11-22T10:01:30;8.41;79.86
82788;DHT22;72529;51.786;4.662;2023-11-22T10:04:03;8.48;79.28
82788;DHT22;72529;51.786;4.662;2023-11-22T10:06:31;8.49;78.85
82788;DHT22;72529;51.786;4.662;2023-11-22T10:09:01;8.55;78.79
82788;DHT22;72529;51.786;4.662;2023-11-22T10:11:32;8.53;79.04
82788;DHT22;72529;51.786;4.662;2023-11-22T10:13:57;8.48;78.29
82788;DHT22;72529;51.786;4.662;2023-11-22T10:16:23;8.35;79.34
82788;DHT22;72529;51.786;4.662;2023-11-22T10:18:49;8.35;79.81
82788;DHT22;72529;51.786;4.662;2023-11-22T10:21:26;8.41;79.58
82788;DHT22;72529;51.786;4.662;2023-11-22T10:24:10;8.50;79.62
82788;DHT22;72529;51.786;4.662;2023-11-22T10:26:35;8.57;79.85
82788;DHT22;72529;51.786;4.662;2023-11-22T10:29:01;8.72;79.62
82788;DHT22;72529;51.786;4.662;2023-11-22T10:31:27;8.76;79.52
82788;DHT22;72529;51.786;4.662;2023-11-22T10:33:54;8.86;79.75
82788;DHT22;72529;51.786;4.662;2023-11-22T10:36:23;8.97;78.62
82788;DHT22;72529;51.786;4.662;2023-11-22T10:38:48;8.81;79.42
82788;DHT22;72529;51.786;4.662;2023-11-22T10:41:16;8.83;80.09
82788;DHT22;72529;51.786;4.662;2023-11-22T10:43:44;8.84;80.14
82788;DHT22;72529;51.786;4.662;2023-11-22T10:46:12;8.93;79.87
82788;DHT22;72529;51.786;4.662;2023-11-22T10:48:38;8.86;79.32
82788;DHT22;72529;51.786;4.662;2023-11-22T10:51:05;8.91;79.19
82788;DHT22;72529;51.786;4.662;2023-11-22T10:53:43;8.96;78.74
82788;DHT22;72529;51.786;4.662;2023-11-22T10:56:14;8.93;78.93
82788;DHT22;72529;51.786;4.662;2023-11-22T10:58:50;9.00;79.58
82788;DHT22;72529;51.786;4.662;2023-11-22T11:01:17;9.01;78.99
82788;DHT22;72529;51.786;4.662;2023-11-22T11:03:49;9.08;79.14
82788;DHT22;72529;51.786;4.662;2023-11-22T11:06:22;9.20;78.86
82788;DHT22;72529;51.786;4.662;2023-11-22T11:08:53;9.28;78.19
82788;DHT22;72529;51.786;4.662;2023-11-22T11:11:21;9.35;78.13
82788;DHT22;72529;51.786;4.662;2023-11-22T11:13:47;9.48;78.49
82788;DHT22;72529;51.786;4.662;2023-11-22T11:16:14;9.57;76.22
82788;DHT22;72529;51.786;4.662;2023-11-22T11:18:40;9.45;77.50
82788;DHT22;72529;51.786;4.662;2023-11-22T11:21:09;9.58;77.98
82788;DHT22;72529;51.786;4.662;2023-11-22T11:23:39;9.62;76.61
82788;DHT22;72529;51.786;4.662;2023-11-22T11:26:15;9.57;75.05
82788;DHT22;72529;51.786;4.662;2023-11-22T11:28:48;9.41;77.03
82788;DHT22;72529;51.786;4.662;2023-11-22T11:31:14;9.45;77.53
82788;DHT22;72529;51.786;4.662;2023-11-22T11:36:29;9.47;76.83
82788;DHT22;72529;51.786;4.662;2023-11-22T11:38:59;9.31;76.58
82788;DHT22;72529;51.786;4.662;2023-11-22T11:41:28;9.26;76.60
82788;DHT22;72529;51.786;4.662;2023-11-22T11:43:56;9.20;77.13
82788;DHT22;72529;51.786;4.662;2023-11-22T11:46:22;9.16;77.17
82788;DHT22;72529;51.786;4.662;2023-11-22T11:48:50;9.21;76.89
82788;DHT22;72529;51.786;4.662;2023-11-22T11:51:21;9.17;77.15
82788;DHT22;72529;51.786;4.662;2023-11-22T11:53:47;9.24;76.99
82788;DHT22;72529;51.786;4.662;2023-11-22T11:56:15;9.26;76.82
82788;DHT22;72529;51.786;4.662;2023-11-22T11:58:42;9.17;77.48
82788;DHT22;72529;51.786;4.662;2023-11-22T12:01:12;9.20;77.21
82788;DHT22;72529;51.786;4.662;2023-11-22T12:03:37;9.20;77.70
82788;DHT22;72529;51.786;4.662;2023-11-22T12:06:05;9.20;77.90
82788;DHT22;72529;51.786;4.662;2023-11-22T12:08:30;9.37;78.02
82788;DHT22;72529;51.786;4.662;2023-11-22T12:11:05;9.42;78.35
82788;DHT22;72529;51.786;4.662;2023-11-22T12:13:34;9.63;77.26
82788;DHT22;72529;51.786;4.662;2023-11-22T12:16:01;9.61;77.56
82788;DHT22;72529;51.786;4.662;2023-11-22T12:18:42;9.51;78.10
82788;DHT22;72529;51.786;4.662;2023-11-22T12:21:11;9.50;77.43
82788;DHT22;72529;51.786;4.662;2023-11-22T12:23:42;9.41;78.34
82788;DHT22;72529;51.786;4.662;2023-11-22T12:26:16;9.47;77.60
82788;DHT22;72529;51.786;4.662;2023-11-22T12:28:45;9.44;77.97
82788;DHT22;72529;51.786;4.662;2023-11-22T12:31:12;9.47;77.02
82788;DHT22;72529;51.786;4.662;2023-11-22T12:33:40;9.32;77.65
82788;DHT22;72529;51.786;4.662;2023-11-22T12:36:08;9.20;78.14
82788;DHT22;72529;51.786;4.662;2023-11-22T12:38:35;9.23;78.22
82788;DHT22;72529;51.786;4.662;2023-11-22T12:41:01;9.14;78.52
82788;DHT22;72529;51.786;4.662;2023-11-22T12:43:31;8.99;78.08
82788;DHT22;72529;51.786;4.662;2023-11-22T12:46:04;8.94;78.53
82788;DHT22;72529;51.786;4.662;2023-11-22T12:48:38;8.72;79.19
82788;DHT22;72529;51.786;4.662;2023-11-22T12:51:15;8.75;79.70
82788;DHT22;72529;51.786;4.662;2023-11-22T12:53:42;8.96;79.94
82788;DHT22;72529;51.786;4.662;2023-11-22T12:56:07;9.07;79.39
82788;DHT22;72529;51.786;4.662;2023-11-22T12:58:33;9.24;79.18
82788;DHT22;72529;51.786;4.662;2023-11-22T13:00:59;9.26;78.11
82788;DHT22;72529;51.786;4.662;2023-11-22T13:03:27;9.28;77.92
82788;DHT22;72529;51.786;4.662;2023-11-22T13:05:53;9.21;78.55
82788;DHT22;72529;51.786;4.662;2023-11-22T13:08:19;9.23;79.06
82788;DHT22;72529;51.786;4.662;2023-11-22T13:10:50;9.11;78.43
82788;DHT22;72529;51.786;4.662;2023-11-22T13:13:23;9.08;79.06
82788;DHT22;72529;51.786;4.662;2023-11-22T13:15:49;8.99;78.56
82788;DHT22;72529;51.786;4.662;2023-11-22T13:18:18;8.83;79.25
82788;DHT22;72529;51.786;4.662;2023-11-22T13:20:44;8.77;79.98
82788;DHT22;72529;51.786;4.662;2023-11-22T13:23:10;8.77;80.14
82788;DHT22;72529;51.786;4.662;2023-11-22T13:25:35;8.94;80.27
82788;DHT22;72529;51.786;4.662;2023-11-22T13:28:02;9.07;78.98
82788;DHT22;72529;51.786;4.662;2023-11-22T13:30:27;9.00;79.21
82788;DHT22;72529;51.786;4.662;2023-11-22T13:32:54;8.91;80.31
82788;DHT22;72529;51.786;4.662;2023-11-22T13:35:23;9.01;79.35
82788;DHT22;72529;51.786;4.662;2023-11-22T13:37:49;8.94;78.47
82788;DHT22;72529;51.786;4.662;2023-11-22T13:40:16;8.83;79.34
82788;DHT22;72529;51.786;4.662;2023-11-22T13:42:42;8.81;79.43
82788;DHT22;72529;51.786;4.662;2023-11-22T13:45:09;8.81;79.23
82788;DHT22;72529;51.786;4.662;2023-11-22T13:47:35;8.77;78.97
82788;DHT22;72529;51.786;4.662;2023-11-22T13:50:01;8.72;79.03
82788;DHT22;72529;51.786;4.662;2023-11-22T13:52:29;8.67;79.32
82788;DHT22;72529;51.786;4.662;2023-11-22T13:54:54;8.66;79.69
82788;DHT22;72529;51.786;4.662;2023-11-22T13:57:22;8.67;79.83
82788;DHT22;72529;51.786;4.662;2023-11-22T13:59:48;8.63;80.01
82788;DHT22;72529;51.786;4.662;2023-11-22T14:02:13;8.72;79.90
82788;DHT22;72529;51.786;4.662;2023-11-22T14:04:38;8.73;79.47
82788;DHT22;72529;51.786;4.662;2023-11-22T14:07:05;8.63;79.55
82788;DHT22;72529;51.786;4.662;2023-11-22T14:09:32;8.62;79.84
82788;DHT22;72529;51.786;4.662;2023-11-22T14:12:02;8.66;79.80
82788;DHT22;72529;51.786;4.662;2023-11-22T14:14:27;8.67;79.91
82788;DHT22;72529;51.786;4.662;2023-11-22T14:16:53;8.59;80.34
82788;DHT22;72529;51.786;4.662;2023-11-22T14:19:18;8.55;80.45
82788;DHT22;72529;51.786;4.662;2023-11-22T14:21:44;8.56;80.47
82788;DHT22;72529;51.786;4.662;2023-11-22T14:24:09;8.53;80.16
82788;DHT22;72529;51.786;4.662;2023-11-22T14:26:35;8.49;80.15
82788;DHT22;72529;51.786;4.662;2023-11-22T14:29:02;8.45;80.37
82788;DHT22;72529;51.786;4.662;2023-11-22T14:31:28;8.44;80.61
82788;DHT22;72529;51.786;4.662;2023-11-22T14:33:54;8.46;80.12
82788;DHT22;72529;51.786;4.662;2023-11-22T14:36:23;8.36;79.98
82788;DHT22;72529;51.786;4.662;2023-11-22T14:38:48;8.35;80.14
82788;DHT22;72529;51.786;4.662;2023-11-22T14:41:20;8.35;80.00
82788;DHT22;72529;51.786;4.662;2023-11-22T14:43:45;8.31;80.30
82788;DHT22;72529;51.786;4.662;2023-11-22T14:46:11;8.36;80.46
82788;DHT22;72529;51.786;4.662;2023-11-22T14:48:36;8.42;80.05
82788;DHT22;72529;51.786;4.662;2023-11-22T14:51:03;8.44;79.75
82788;DHT22;72529;51.786;4.662;2023-11-22T14:53:28;8.36;80.08
82788;DHT22;72529;51.786;4.662;2023-11-22T14:55:54;8.39;80.14
82788;DHT22;72529;51.786;4.662;2023-11-22T14:58:19;8.44;79.66
82788;DHT22;72529;51.786;4.662;2023-11-22T15:00:44;8.34;79.54
82788;DHT22;72529;51.786;4.662;2023-11-22T15:03:10;8.31;80.22
82788;DHT22;72529;51.786;4.662;2023-11-22T15:05:36;8.26;80.12
82788;DHT22;72529;51.786;4.662;2023-11-22T15:08:02;8.26;80.49
82788;DHT22;72529;51.786;4.662;2023-11-22T15:10:28;8.26;80.23
82788;DHT22;72529;51.786;4.662;2023-11-22T15:12:54;8.24;80.59
82788;DHT22;72529;51.786;4.662;2023-11-22T15:15:20;8.22;80.45
82788;DHT22;72529;51.786;4.662;2023-11-22T15:17:46;8.22;80.45
82788;DHT22;72529;51.786;4.662;2023-11-22T15:20:12;8.20;80.51
82788;DHT22;72529;51.786;4.662;2023-11-22T15:22:41;8.26;80.50
82788;DHT22;72529;51.786;4.662;2023-11-22T15:25:08;8.29;80.50
82788;DHT22;72529;51.786;4.662;2023-11-22T15:27:35;8.28;80.70
82788;DHT22;72529;51.786;4.662;2023-11-22T15:30:01;8.31;80.64
82788;DHT22;72529;51.786;4.662;2023-11-22T15:32:26;8.34;80.36
82788;DHT22;72529;51.786;4.662;2023-11-22T15:34:52;8.21;80.95
82788;DHT22;72529;51.786;4.662;2023-11-22T15:37:18;8.31;80.70
82788;DHT22;72529;51.786;4.662;2023-11-22T15:39:43;8.22;80.92
82788;DHT22;72529;51.786;4.662;2023-11-22T15:42:09;8.26;81.14
82788;DHT22;72529;51.786;4.662;2023-11-22T15:44:35;8.31;80.78
82788;DHT22;72529;51.786;4.662;2023-11-22T15:47:01;8.24;81.25